createdAt,value
2023-03-29T00:00:08.277Z,97915.84
2023-03-29T00:02:36.460Z,97915.00
2023-03-29T00:05:05.354Z,97911.06
2023-03-29T00:07:52.827Z,97908.22
2023-03-29T00:10:22.579Z,97907.69
2023-03-29T00:12:52.165Z,97908.50
2023-03-29T00:15:21.836Z,97914.31
2023-03-29T00:17:49.850Z,97902.41
2023-03-29T00:20:17.977Z,97895.09
2023-03-29T00:22:46.854Z,97901.59
2023-03-29T00:25:15.215Z,97898.47
2023-03-29T00:27:43.210Z,97887.63
2023-03-29T00:30:11.794Z,97889.22
2023-03-29T00:32:41.183Z,97890.81
2023-03-29T00:35:09.971Z,97890.88
2023-03-29T00:37:38.153Z,97892.72
2023-03-29T00:40:11.217Z,97889.31
2023-03-29T00:42:40.585Z,97891.22
2023-03-29T00:45:18.985Z,97884.34
2023-03-29T00:47:49.891Z,97882.25
2023-03-29T00:50:22.423Z,97886.97
2023-03-29T00:52:52.837Z,97888.63
2023-03-29T00:55:23.001Z,97884.88
2023-03-29T00:57:52.267Z,97881.50
2023-03-29T01:00:22.429Z,97865.13
2023-03-29T01:02:54.200Z,97866.25
2023-03-29T01:05:26.014Z,97875.47
2023-03-29T01:07:58.310Z,97877.56
2023-03-29T01:10:28.885Z,97870.22
2023-03-29T01:13:01.844Z,97865.50
2023-03-29T01:15:30.060Z,97873.94
2023-03-29T01:18:02.159Z,97852.31
2023-03-29T01:20:43.600Z,97863.91
2023-03-29T01:23:18.671Z,97864.69
2023-03-29T01:25:49.076Z,97854.41
2023-03-29T01:28:20.350Z,97850.97
2023-03-29T01:30:51.371Z,97840.66
2023-03-29T01:33:21.806Z,97839.09
2023-03-29T01:35:52.705Z,97832.56
2023-03-29T01:38:23.508Z,97838.59
2023-03-29T01:40:51.552Z,97828.81
2023-03-29T01:43:24.737Z,97823.78
2023-03-29T01:45:56.889Z,97834.84
2023-03-29T01:48:27.697Z,97837.50
2023-03-29T01:50:57.303Z,97831.94
2023-03-29T01:53:29.613Z,97825.91
2023-03-29T01:56:00.008Z,97829.66
2023-03-29T01:58:33.806Z,97825.34
2023-03-29T02:01:05.936Z,97824.03
2023-03-29T02:03:42.412Z,97821.88
2023-03-29T02:06:12.407Z,97817.69
2023-03-29T02:08:41.451Z,97810.88
2023-03-29T02:11:10.011Z,97804.59
2023-03-29T02:13:39.419Z,97801.72
2023-03-29T02:16:12.461Z,97807.47
2023-03-29T02:18:40.604Z,97804.03
2023-03-29T02:21:10.362Z,97794.81
2023-03-29T02:23:39.742Z,97799.53
2023-03-29T02:26:09.061Z,97800.34
2023-03-29T02:28:37.473Z,97793.22
2023-03-29T02:31:10.657Z,97787.66
2023-03-29T02:33:42.563Z,97793.72
2023-03-29T02:36:13.960Z,97783.16
2023-03-29T02:38:42.384Z,97776.25
2023-03-29T02:41:10.756Z,97781.81
2023-03-29T02:43:40.389Z,97780.22
2023-03-29T02:46:10.305Z,97775.50
2023-03-29T02:48:39.080Z,97771.31
2023-03-29T02:51:10.589Z,97769.69
2023-03-29T02:53:40.575Z,97772.84
2023-03-29T02:56:09.918Z,97768.66
2023-03-29T02:58:38.909Z,97759.63
2023-03-29T03:01:07.895Z,97764.34
2023-03-29T03:03:37.269Z,97773.00
2023-03-29T03:06:06.072Z,97762.72
2023-03-29T03:08:34.091Z,97768.25
2023-03-29T03:11:02.281Z,97766.13
2023-03-29T03:13:31.053Z,97760.56
2023-03-29T03:15:59.181Z,97754.03
2023-03-29T03:18:27.842Z,97763.25
2023-03-29T03:20:58.010Z,97752.94
2023-03-29T03:23:26.349Z,97751.09
2023-03-29T03:25:54.635Z,97746.31
2023-03-29T03:28:24.369Z,97742.09
2023-03-29T03:30:52.483Z,97745.53
2023-03-29T03:33:20.478Z,97745.00
2023-03-29T03:35:48.610Z,97749.72
2023-03-29T03:38:18.098Z,97741.53
2023-03-29T03:40:45.953Z,97753.53
2023-03-29T03:43:13.891Z,97746.16
2023-03-29T03:45:43.895Z,97756.91
2023-03-29T03:48:11.918Z,97741.31
2023-03-29T03:50:40.289Z,97744.47
2023-03-29T03:53:08.458Z,97734.91
2023-03-29T03:55:37.857Z,97743.03
2023-03-29T03:58:07.348Z,97741.63
2023-03-29T04:00:35.233Z,97744.44
2023-03-29T04:03:06.268Z,97735.50
2023-03-29T04:05:34.412Z,97737.25
2023-03-29T04:08:03.348Z,97741.44
2023-03-29T04:10:31.425Z,97733.94
2023-03-29T04:13:02.501Z,97726.47
2023-03-29T04:15:31.604Z,97723.53
2023-03-29T04:18:00.634Z,97713.84
2023-03-29T04:20:28.849Z,97719.28
2023-03-29T04:22:56.877Z,97713.09
2023-03-29T04:25:25.370Z,97716.44
2023-03-29T04:27:53.338Z,97719.28
2023-03-29T04:30:22.817Z,97720.81
2023-03-29T04:32:50.931Z,97720.38
2023-03-29T04:35:19.112Z,97718.16
2023-03-29T04:37:48.418Z,97720.00
2023-03-29T04:40:19.588Z,97720.31
2023-03-29T04:42:48.072Z,97723.00
2023-03-29T04:45:18.307Z,97716.50
2023-03-29T04:47:47.875Z,97718.78
2023-03-29T04:50:15.936Z,97722.28
2023-03-29T04:52:45.698Z,97713.50
2023-03-29T04:55:13.832Z,97724.00
2023-03-29T04:57:41.735Z,97716.56
2023-03-29T05:00:15.587Z,97712.28
2023-03-29T05:02:44.564Z,97718.66
2023-03-29T05:05:14.596Z,97723.34
2023-03-29T05:07:42.823Z,97717.34
2023-03-29T05:10:10.960Z,97717.03
2023-03-29T05:12:39.292Z,97713.13
2023-03-29T05:15:08.315Z,97705.72
2023-03-29T05:17:36.517Z,97718.75
2023-03-29T05:20:09.899Z,97720.22
2023-03-29T05:22:40.442Z,97722.44
2023-03-29T05:25:09.468Z,97713.25
2023-03-29T05:27:37.373Z,97715.78
2023-03-29T05:30:05.685Z,97720.88
2023-03-29T05:32:33.935Z,97721.19
2023-03-29T05:35:01.987Z,97718.44
2023-03-29T05:37:30.008Z,97722.75
2023-03-29T05:40:05.801Z,97701.50
2023-03-29T05:42:34.454Z,97712.31
2023-03-29T05:45:02.476Z,97715.06
2023-03-29T05:47:30.666Z,97722.91
2023-03-29T05:49:58.770Z,97715.56
2023-03-29T05:52:26.729Z,97723.50
2023-03-29T05:54:54.859Z,97715.44
2023-03-29T05:57:24.422Z,97721.69
2023-03-29T05:59:52.550Z,97716.97
2023-03-29T06:02:20.439Z,97706.75
2023-03-29T06:04:48.505Z,97713.91
2023-03-29T06:07:16.583Z,97719.69
2023-03-29T06:09:44.993Z,97720.22
2023-03-29T06:12:13.975Z,97722.84
2023-03-29T06:14:43.469Z,97712.53
2023-03-29T06:17:11.532Z,97711.03
2023-03-29T06:19:39.457Z,97718.19
2023-03-29T06:22:07.511Z,97710.34
2023-03-29T06:24:35.487Z,97709.56
2023-03-29T06:27:03.657Z,97716.63
2023-03-29T06:29:31.892Z,97706.63
2023-03-29T06:32:01.385Z,97709.56
2023-03-29T06:34:29.527Z,97705.78
2023-03-29T06:36:57.851Z,97704.13
2023-03-29T06:39:27.110Z,97704.03
2023-03-29T06:41:55.729Z,97705.03
2023-03-29T06:44:23.791Z,97702.88
2023-03-29T06:46:52.105Z,97710.03
2023-03-29T06:49:21.835Z,97699.81
2023-03-29T06:51:50.101Z,97691.88
2023-03-29T06:54:18.898Z,97693.03
2023-03-29T06:56:47.492Z,97705.44
2023-03-29T06:59:15.558Z,97699.28
2023-03-29T07:01:45.280Z,97704.53
2023-03-29T07:04:13.381Z,97702.13
2023-03-29T07:06:48.492Z,97713.94
2023-03-29T07:09:18.354Z,97688.78
2023-03-29T07:11:47.567Z,97702.81
2023-03-29T07:14:15.902Z,97709.56
2023-03-29T07:16:47.391Z,97700.31
2023-03-29T07:19:15.599Z,97706.00
2023-03-29T07:21:44.917Z,97694.66
2023-03-29T07:24:13.203Z,97704.00
2023-03-29T07:26:52.220Z,97707.38
2023-03-29T07:29:24.793Z,97714.81
2023-03-29T07:31:52.781Z,97712.28
2023-03-29T07:34:21.164Z,97709.84
2023-03-29T07:36:50.614Z,97712.75
2023-03-29T07:39:18.887Z,97712.09
2023-03-29T07:41:46.931Z,97709.31
2023-03-29T07:44:14.892Z,97719.50
2023-03-29T07:46:43.511Z,97712.53
2023-03-29T07:49:11.526Z,97712.16
2023-03-29T07:51:39.530Z,97717.19
2023-03-29T07:54:09.347Z,97708.50
2023-03-29T07:56:37.377Z,97723.94
2023-03-29T07:59:05.414Z,97712.97
2023-03-29T08:01:33.335Z,97721.13
2023-03-29T08:04:01.496Z,97721.13
2023-03-29T08:06:29.750Z,97719.41
2023-03-29T08:08:57.833Z,97734.22
2023-03-29T08:11:27.710Z,97706.94
2023-03-29T08:13:56.373Z,97718.66
2023-03-29T08:16:24.402Z,97714.34
2023-03-29T08:18:52.431Z,97708.34
2023-03-29T08:21:20.707Z,97698.78
2023-03-29T08:23:48.772Z,97693.69
2023-03-29T08:26:17.310Z,97695.63
2023-03-29T08:28:46.677Z,97696.34
2023-03-29T08:31:14.712Z,97693.66
2023-03-29T08:33:44.436Z,97701.16
2023-03-29T08:36:12.710Z,97704.25
2023-03-29T08:38:40.938Z,97701.03
2023-03-29T08:41:15.829Z,97695.31
2023-03-29T08:43:59.311Z,97699.28
2023-03-29T08:46:35.391Z,97686.03
2023-03-29T08:49:05.664Z,97695.16
2023-03-29T08:51:34.902Z,97688.41
2023-03-29T08:54:04.160Z,97689.75
2023-03-29T08:56:34.241Z,97688.97
2023-03-29T08:59:04.451Z,97695.94
2023-03-29T09:01:35.074Z,97684.28
2023-03-29T09:04:06.950Z,97689.34
2023-03-29T09:06:34.918Z,97685.63
2023-03-29T09:09:02.918Z,97679.84
2023-03-29T09:11:39.578Z,97679.28
2023-03-29T09:14:21.150Z,97683.09
2023-03-29T09:16:54.076Z,97677.69
2023-03-29T09:19:27.887Z,97666.94
2023-03-29T09:22:00.571Z,97684.66
2023-03-29T09:24:39.767Z,97687.19
2023-03-29T09:27:11.432Z,97687.28
2023-03-29T09:29:50.404Z,97687.97
2023-03-29T09:32:21.164Z,97688.72
2023-03-29T09:34:53.831Z,97685.06
2023-03-29T09:37:24.895Z,97689.84
2023-03-29T09:39:53.456Z,97680.66
2023-03-29T09:42:22.052Z,97687.28
2023-03-29T09:44:52.959Z,97688.84
2023-03-29T09:47:25.053Z,97683.66
2023-03-29T09:49:57.203Z,97676.81
2023-03-29T09:52:25.249Z,97680.91
2023-03-29T09:54:53.407Z,97685.84
2023-03-29T09:57:21.571Z,97693.72
2023-03-29T09:59:52.615Z,97684.13
2023-03-29T10:02:21.345Z,97686.97
2023-03-29T10:04:55.378Z,97671.53
2023-03-29T10:07:23.806Z,97683.56
2023-03-29T10:09:53.720Z,97663.16
2023-03-29T10:12:23.236Z,97675.03
2023-03-29T10:14:55.284Z,97663.66
2023-03-29T10:17:24.473Z,97666.88
2023-03-29T10:19:52.985Z,97670.50
2023-03-29T10:22:23.413Z,97668.47
2023-03-29T10:24:52.761Z,97664.94
2023-03-29T10:27:23.464Z,97667.06
2023-03-29T10:29:53.472Z,97666.13
2023-03-29T10:32:27.326Z,97670.03
2023-03-29T10:34:56.247Z,97655.72
2023-03-29T10:37:24.270Z,97663.16
2023-03-29T10:39:52.781Z,97668.03
2023-03-29T10:42:21.956Z,97660.25
2023-03-29T10:44:56.184Z,97650.75
2023-03-29T10:47:24.436Z,97659.56
2023-03-29T10:49:56.387Z,97661.13
2023-03-29T10:52:25.129Z,97653.97
2023-03-29T10:54:54.118Z,97653.38
2023-03-29T10:57:27.967Z,97657.22
2023-03-29T11:00:01.143Z,97640.34
2023-03-29T11:02:49.448Z,97652.38
2023-03-29T11:05:24.690Z,97654.66
2023-03-29T11:08:19.144Z,97644.56
2023-03-29T11:10:50.625Z,97669.06
2023-03-29T11:13:23.702Z,97663.69
2023-03-29T11:15:58.564Z,97656.03
2023-03-29T11:18:33.741Z,97664.84
2023-03-29T11:21:10.190Z,97666.50
2023-03-29T11:23:47.592Z,97664.47
2023-03-29T11:26:18.520Z,97664.22
2023-03-29T11:28:50.203Z,97665.19
2023-03-29T11:31:25.450Z,97669.13
2023-03-29T11:33:58.908Z,97662.75
2023-03-29T11:36:31.888Z,97653.25
2023-03-29T11:39:05.785Z,97667.53
2023-03-29T11:41:37.020Z,97663.34
2023-03-29T11:44:07.481Z,97667.53
2023-03-29T11:46:39.367Z,97669.91
2023-03-29T11:49:11.281Z,97666.88
2023-03-29T11:51:41.427Z,97668.91
2023-03-29T11:54:16.170Z,97664.41
2023-03-29T11:56:46.424Z,97670.00
2023-03-29T11:59:17.651Z,97680.41
2023-03-29T12:01:51.029Z,97665.53
2023-03-29T12:04:23.097Z,97665.34
2023-03-29T12:06:55.748Z,97663.66
2023-03-29T12:09:30.935Z,97681.97
2023-03-29T12:12:04.911Z,97670.03
2023-03-29T12:14:39.236Z,97673.53
2023-03-29T12:17:13.858Z,97666.31
2023-03-29T12:19:44.526Z,97671.66
2023-03-29T12:22:12.446Z,97670.59
2023-03-29T12:24:42.622Z,97677.06
2023-03-29T12:27:20.930Z,97685.19
2023-03-29T12:29:56.170Z,97674.59
2023-03-29T12:32:43.107Z,97683.91
2023-03-29T12:35:22.328Z,97683.13
2023-03-29T12:37:56.772Z,97674.31
2023-03-29T12:40:27.708Z,97669.81
2023-03-29T12:42:57.818Z,97685.38
2023-03-29T12:45:31.000Z,97680.69
2023-03-29T12:48:01.443Z,97661.91
2023-03-29T12:50:33.447Z,97680.34
2023-03-29T12:53:08.775Z,97681.50
2023-03-29T12:55:49.545Z,97676.19
2023-03-29T12:58:28.392Z,97681.19
2023-03-29T13:01:06.383Z,97689.94
2023-03-29T13:03:43.626Z,97690.91
2023-03-29T13:06:13.325Z,97676.69
2023-03-29T13:08:42.685Z,97679.25
2023-03-29T13:11:13.675Z,97676.81
2023-03-29T13:13:42.668Z,97691.19
2023-03-29T13:16:12.878Z,97677.31
2023-03-29T13:18:50.089Z,97686.81
2023-03-29T13:21:22.968Z,97681.13
2023-03-29T13:23:58.591Z,97690.91
2023-03-29T13:26:38.461Z,97691.44
2023-03-29T13:29:18.959Z,97693.53
2023-03-29T13:31:50.551Z,97684.75
2023-03-29T13:34:30.354Z,97699.94
2023-03-29T13:37:02.603Z,97711.00
2023-03-29T13:39:32.040Z,97694.50
2023-03-29T13:42:08.917Z,97714.94
2023-03-29T13:44:43.685Z,97717.38
2023-03-29T13:47:16.470Z,97722.09
2023-03-29T13:49:51.752Z,97721.38
2023-03-29T13:52:22.954Z,97719.50
2023-03-29T13:54:54.207Z,97730.28
2023-03-29T13:57:25.297Z,97735.00
2023-03-29T13:59:58.475Z,97732.91
2023-03-29T14:02:36.493Z,97740.56
2023-03-29T14:05:09.997Z,97742.44
2023-03-29T14:07:39.335Z,97730.06
2023-03-29T14:10:08.657Z,97728.97
2023-03-29T14:12:41.184Z,97738.31
2023-03-29T14:15:20.961Z,97733.00
2023-03-29T14:17:49.185Z,97742.34
2023-03-29T14:20:19.232Z,97746.06
2023-03-29T14:22:47.663Z,97741.34
2023-03-29T14:25:17.566Z,97737.25
2023-03-29T14:27:45.663Z,97737.75
2023-03-29T14:30:48.621Z,97748.94
2023-03-29T14:33:16.912Z,97751.03
2023-03-29T14:35:46.407Z,97759.41
2023-03-29T14:38:14.404Z,97757.81
2023-03-29T14:40:45.122Z,97770.69
2023-03-29T14:43:16.007Z,97772.47
2023-03-29T14:45:45.744Z,97767.88
2023-03-29T14:48:14.838Z,97778.88
2023-03-29T14:50:43.541Z,97777.53
2023-03-29T14:53:17.848Z,97779.59
2023-03-29T14:55:48.105Z,97782.59
2023-03-29T14:58:18.648Z,97789.94
2023-03-29T15:00:49.294Z,97787.19
2023-03-29T15:03:18.009Z,97787.53
2023-03-29T15:05:49.317Z,97792.03
2023-03-29T15:08:20.008Z,97780.91
2023-03-29T15:10:48.068Z,97787.53
2023-03-29T15:13:17.916Z,97803.03
2023-03-29T15:15:46.225Z,97799.16
2023-03-29T15:18:16.900Z,97798.91
2023-03-29T15:20:45.529Z,97795.97
2023-03-29T15:23:25.036Z,97790.13
2023-03-29T15:25:57.067Z,97804.19
2023-03-29T15:28:28.451Z,97799.09
2023-03-29T15:33:36.195Z,97806.53
2023-03-29T15:36:05.956Z,97807.97
2023-03-29T15:38:43.301Z,97805.31
2023-03-29T15:41:12.498Z,97818.53
2023-03-29T15:43:41.546Z,97826.97
2023-03-29T15:46:09.783Z,97819.84
2023-03-29T15:48:37.813Z,97824.06
2023-03-29T15:51:06.936Z,97824.63
2023-03-29T15:53:37.043Z,97827.28
2023-03-29T15:56:07.574Z,97835.91
2023-03-29T15:58:36.752Z,97845.22
2023-03-29T16:01:12.181Z,97844.81
2023-03-29T16:03:40.517Z,97840.53
2023-03-29T16:06:11.450Z,97837.84
2023-03-29T16:08:42.871Z,97843.41
2023-03-29T16:11:11.805Z,97843.63
2023-03-29T16:13:39.882Z,97846.19
2023-03-29T16:16:09.295Z,97840.91
2023-03-29T16:18:37.335Z,97829.41
2023-03-29T16:21:05.660Z,97845.81
2023-03-29T16:23:33.632Z,97852.41
2023-03-29T16:26:03.443Z,97865.00
2023-03-29T16:28:31.782Z,97855.44
2023-03-29T16:30:59.727Z,97863.06
2023-03-29T16:33:27.714Z,97863.63
2023-03-29T16:35:56.282Z,97870.28
2023-03-29T16:38:26.045Z,97881.13
2023-03-29T16:40:53.981Z,97872.63
2023-03-29T16:43:23.468Z,97878.88
2023-03-29T16:45:51.336Z,97875.44
2023-03-29T16:48:19.902Z,97879.47
2023-03-29T16:50:49.520Z,97885.28
2023-03-29T16:53:18.381Z,97882.59
2023-03-29T16:55:46.850Z,97878.25
2023-03-29T16:58:15.591Z,97882.06
2023-03-29T17:00:48.186Z,97881.22
2023-03-29T17:03:17.073Z,97884.59
2023-03-29T17:05:47.799Z,97887.19
2023-03-29T17:08:16.342Z,97882.19
2023-03-29T17:10:44.549Z,97888.31
2023-03-29T17:13:13.131Z,97887.41
2023-03-29T17:15:41.152Z,97897.72
2023-03-29T17:18:10.791Z,97896.13
2023-03-29T17:20:40.047Z,97891.84
2023-03-29T17:23:09.062Z,97897.13
2023-03-29T17:25:37.313Z,97901.63
2023-03-29T17:28:05.822Z,97904.00
2023-03-29T17:30:34.926Z,97904.22
2023-03-29T17:33:03.353Z,97895.34
2023-03-29T17:35:33.254Z,97905.13
2023-03-29T17:38:01.781Z,97906.19
2023-03-29T17:40:30.179Z,97899.38
2023-03-29T17:42:58.123Z,97894.09
2023-03-29T17:45:26.587Z,97897.31
2023-03-29T17:47:54.671Z,97891.78
2023-03-29T17:50:22.794Z,97899.38
2023-03-29T17:52:52.138Z,97899.47
2023-03-29T17:55:21.226Z,97901.66
2023-03-29T17:57:50.127Z,97903.72
2023-03-29T18:00:18.565Z,97906.72
2023-03-29T18:02:46.762Z,97914.31
2023-03-29T18:05:14.925Z,97906.38
2023-03-29T18:07:42.794Z,97914.31
2023-03-29T18:10:12.737Z,97908.03
2023-03-29T18:12:40.748Z,97924.25
2023-03-29T18:15:09.517Z,97922.31
2023-03-29T18:17:37.637Z,97919.06
2023-03-29T18:20:11.217Z,97918.44
2023-03-29T18:22:39.167Z,97927.53
2023-03-29T18:25:09.572Z,97941.69
2023-03-29T18:27:39.625Z,97935.44
2023-03-29T18:30:10.861Z,97937.97
2023-03-29T18:32:38.838Z,97933.97
2023-03-29T18:35:07.524Z,97933.16
2023-03-29T18:37:36.384Z,97935.78
2023-03-29T18:40:07.963Z,97943.78
2023-03-29T18:42:36.001Z,97935.28
2023-03-29T18:45:05.955Z,97936.63
2023-03-29T18:47:34.104Z,97935.41
2023-03-29T18:50:02.917Z,97940.69
2023-03-29T18:52:31.064Z,97940.94
2023-03-29T18:54:59.025Z,97940.41
2023-03-29T18:57:27.059Z,97950.63
2023-03-29T18:59:55.160Z,97955.88
2023-03-29T19:02:24.803Z,97940.84
2023-03-29T19:04:52.905Z,97947.38
2023-03-29T19:07:22.090Z,97946.19
2023-03-29T19:09:56.764Z,97945.38
2023-03-29T19:12:24.748Z,97949.06
2023-03-29T19:14:52.765Z,97948.53
2023-03-29T19:17:20.764Z,97952.75
2023-03-29T19:19:50.191Z,97956.34
2023-03-29T19:22:18.067Z,97954.28
2023-03-29T19:24:46.059Z,97948.72
2023-03-29T19:27:14.722Z,97958.44
2023-03-29T19:29:42.689Z,97955.06
2023-03-29T19:32:10.608Z,97946.91
2023-03-29T19:34:38.828Z,97956.94
2023-03-29T19:37:08.199Z,97952.09
2023-03-29T19:39:36.130Z,97961.38
2023-03-29T19:42:04.294Z,97962.66
2023-03-29T19:44:32.251Z,97959.25
2023-03-29T19:47:00.396Z,97952.16
2023-03-29T19:49:28.616Z,97962.06
2023-03-29T19:51:57.630Z,97948.50
2023-03-29T19:54:27.338Z,97959.91
2023-03-29T19:56:57.445Z,97960.31
2023-03-29T19:59:25.501Z,97958.16
2023-03-29T20:01:57.019Z,97964.47
2023-03-29T20:04:26.071Z,97962.13
2023-03-29T20:06:54.129Z,97967.16
2023-03-29T20:09:22.236Z,97960.25
2023-03-29T20:11:51.578Z,97958.34
2023-03-29T20:14:19.534Z,97962.06
2023-03-29T20:16:49.783Z,97970.75
2023-03-29T20:19:25.372Z,97966.53
2023-03-29T20:21:55.212Z,97968.41
2023-03-29T20:24:23.516Z,97967.34
2023-03-29T20:26:53.400Z,97970.97
2023-03-29T20:29:21.426Z,97977.56
2023-03-29T20:31:49.581Z,97967.78
2023-03-29T20:34:18.305Z,97973.31
2023-03-29T20:36:46.838Z,97970.94
2023-03-29T20:39:17.817Z,97972.47
2023-03-29T20:41:47.861Z,97974.59
2023-03-29T20:44:18.585Z,97981.69
2023-03-29T20:46:54.332Z,97975.84
2023-03-29T20:49:26.651Z,97967.41
2023-03-29T20:51:58.846Z,97977.41
2023-03-29T20:54:26.970Z,97979.03
2023-03-29T20:56:56.186Z,97976.34
2023-03-29T20:59:25.692Z,97978.75
2023-03-29T21:01:53.850Z,97977.47
2023-03-29T21:04:21.844Z,97977.94
2023-03-29T21:06:50.473Z,97983.47
2023-03-29T21:09:19.290Z,97990.56
2023-03-29T21:11:47.314Z,98001.22
2023-03-29T21:14:19.640Z,97993.00
2023-03-29T21:16:49.363Z,97999.09
2023-03-29T21:19:18.228Z,98002.44
2023-03-29T21:21:47.737Z,98005.59
2023-03-29T21:24:15.911Z,98003.44
2023-03-29T21:26:45.743Z,98007.75
2023-03-29T21:29:13.738Z,98000.31
2023-03-29T21:31:41.941Z,98000.31
2023-03-29T21:34:11.477Z,97997.94
2023-03-29T21:36:40.035Z,98004.03
2023-03-29T21:39:07.969Z,98011.69
2023-03-29T21:41:35.960Z,98012.19
2023-03-29T21:44:03.948Z,98003.69
2023-03-29T21:46:31.986Z,97994.09
2023-03-29T21:49:00.104Z,98000.47
2023-03-29T21:51:29.524Z,98005.69
2023-03-29T21:53:57.448Z,98001.22
2023-03-29T21:56:26.501Z,97998.06
2023-03-29T21:58:54.472Z,98006.50
2023-03-29T22:01:22.412Z,98003.34
2023-03-29T22:03:50.535Z,98005.69
2023-03-29T22:06:18.533Z,97998.56
2023-03-29T22:08:49.629Z,98004.13
2023-03-29T22:11:17.601Z,97999.84
2023-03-29T22:13:45.625Z,97994.63
2023-03-29T22:16:16.944Z,97995.94
2023-03-29T22:18:46.995Z,97991.97
2023-03-29T22:21:16.436Z,97994.69
2023-03-29T22:23:45.579Z,98001.03
2023-03-29T22:26:15.957Z,97999.34
2023-03-29T22:28:44.383Z,97999.34
2023-03-29T22:31:13.278Z,97998.28
2023-03-29T22:33:41.889Z,98000.19
2023-03-29T22:36:14.122Z,98009.94
2023-03-29T22:38:42.052Z,97999.34
2023-03-29T22:41:09.990Z,97997.00
2023-03-29T22:43:39.924Z,98003.91
2023-03-29T22:46:08.756Z,98005.69
2023-03-29T22:48:37.321Z,98011.50
2023-03-29T22:51:06.695Z,97997.75
2023-03-29T22:53:34.975Z,98004.63
2023-03-29T22:56:02.915Z,97999.25
2023-03-29T22:58:30.805Z,97997.09
2023-03-29T23:01:00.301Z,97992.03
2023-03-29T23:03:28.330Z,97999.41
2023-03-29T23:05:57.049Z,98000.22
2023-03-29T23:08:25.674Z,98001.53
2023-03-29T23:10:53.636Z,97991.75
2023-03-29T23:13:25.906Z,97994.19
2023-03-29T23:15:55.242Z,97992.03
2023-03-29T23:18:24.893Z,97991.75
2023-03-29T23:20:54.728Z,97985.97
2023-03-29T23:23:23.183Z,97994.53
2023-03-29T23:25:52.509Z,97993.19
2023-03-29T23:28:21.968Z,98001.38
2023-03-29T23:30:55.273Z,98006.75
2023-03-29T23:33:25.876Z,98007.78
2023-03-29T23:35:54.170Z,97997.75
2023-03-29T23:38:22.077Z,98005.13
2023-03-29T23:40:58.959Z,98004.81
2023-03-29T23:43:27.414Z,98000.91
2023-03-29T23:45:58.864Z,98004.81
2023-03-29T23:48:28.272Z,97992.47
2023-03-29T23:50:57.370Z,97994.03
2023-03-29T23:53:29.077Z,98000.41
2023-03-29T23:55:58.416Z,97997.75
2023-03-29T23:58:26.451Z,98002.22
